createdAt,value
2016-11-29T00:00:44.353Z,0
2016-11-29T00:01:44.382Z,0
2016-11-29T00:02:44.314Z,0
2016-11-29T00:03:44.270Z,0
2016-11-29T00:04:44.260Z,0
2016-11-29T00:05:44.239Z,0
2016-11-29T00:06:44.245Z,0
2016-11-29T00:07:44.205Z,0
2016-11-29T00:08:44.191Z,0
2016-11-29T00:09:44.190Z,0
2016-11-29T00:10:44.114Z,0
2016-11-29T00:11:44.093Z,0
2016-11-29T00:12:44.059Z,0
2016-11-29T00:13:44.049Z,0
2016-11-29T00:14:44.023Z,0
2016-11-29T00:15:44.015Z,0
2016-11-29T00:16:43.975Z,0
2016-11-29T00:17:43.918Z,0
2016-11-29T00:18:43.924Z,0
2016-11-29T00:19:43.893Z,0
2016-11-29T00:20:43.865Z,0
2016-11-29T00:21:43.839Z,0
2016-11-29T00:22:43.833Z,0
2016-11-29T00:23:43.763Z,0
2016-11-29T00:24:43.779Z,0
2016-11-29T00:25:43.722Z,0
2016-11-29T00:26:43.732Z,0
2016-11-29T00:27:43.652Z,0
2016-11-29T00:28:43.656Z,0
2016-11-29T00:29:43.623Z,0
2016-11-29T00:30:43.615Z,0
2016-11-29T00:31:43.569Z,0
2016-11-29T00:32:43.541Z,0
2016-11-29T00:33:43.517Z,0
2016-11-29T00:34:43.484Z,0
2016-11-29T00:35:43.486Z,0
2016-11-29T00:36:43.434Z,0
2016-11-29T00:37:43.412Z,0
2016-11-29T00:38:43.381Z,0
2016-11-29T00:39:43.373Z,0
2016-11-29T00:40:43.344Z,0
2016-11-29T00:41:43.323Z,0
2016-11-29T00:42:43.255Z,0
2016-11-29T00:43:43.275Z,0
2016-11-29T00:44:43.242Z,0
2016-11-29T00:45:43.214Z,0
2016-11-29T00:46:43.202Z,0
2016-11-29T00:47:43.187Z,0
2016-11-29T00:48:43.143Z,0
2016-11-29T00:49:43.116Z,0
2016-11-29T00:50:43.104Z,0
2016-11-29T00:51:43.071Z,0
2016-11-29T00:52:43.080Z,0
2016-11-29T00:53:43.004Z,0
2016-11-29T00:54:42.975Z,0
2016-11-29T00:55:42.967Z,0
2016-11-29T00:56:42.926Z,0
2016-11-29T00:57:42.890Z,0
2016-11-29T00:58:42.888Z,0
2016-11-29T00:59:42.857Z,0
2016-11-29T01:00:42.829Z,0
2016-11-29T01:01:42.797Z,0
2016-11-29T01:02:42.768Z,0
2016-11-29T01:03:42.757Z,0
2016-11-29T01:04:42.731Z,0
2016-11-29T01:05:42.702Z,0
2016-11-29T01:06:42.705Z,0
2016-11-29T01:07:42.647Z,0
2016-11-29T01:08:42.602Z,0
2016-11-29T01:09:42.597Z,0
2016-11-29T01:10:42.574Z,0
2016-11-29T01:11:42.576Z,0
2016-11-29T01:12:42.521Z,0
2016-11-29T01:13:42.499Z,0
2016-11-29T01:14:42.477Z,0
2016-11-29T01:15:42.435Z,0
2016-11-29T01:16:42.433Z,0
2016-11-29T01:17:42.386Z,0
2016-11-29T01:18:42.371Z,0
2016-11-29T01:19:42.330Z,0
2016-11-29T01:20:42.315Z,0
2016-11-29T01:21:42.293Z,0
2016-11-29T01:22:42.287Z,0
2016-11-29T01:23:42.239Z,0
2016-11-29T01:24:42.196Z,0
2016-11-29T01:25:42.201Z,0
2016-11-29T01:26:42.194Z,0
2016-11-29T01:27:42.117Z,0
2016-11-29T01:28:42.128Z,0
2016-11-29T01:29:42.077Z,0
2016-11-29T01:30:42.068Z,0
2016-11-29T01:31:42.014Z,0
2016-11-29T01:32:42.006Z,0
2016-11-29T01:33:41.953Z,0
2016-11-29T01:34:41.945Z,0
2016-11-29T01:35:42.013Z,0
2016-11-29T01:36:41.942Z,0
2016-11-29T01:37:41.916Z,0
2016-11-29T01:38:41.878Z,0
2016-11-29T01:39:41.812Z,0
2016-11-29T01:40:41.794Z,0
2016-11-29T01:41:41.801Z,0
2016-11-29T01:42:41.786Z,0
2016-11-29T01:43:41.735Z,0
2016-11-29T01:44:41.703Z,0
2016-11-29T01:45:41.684Z,0
2016-11-29T01:46:41.680Z,0
2016-11-29T01:47:41.942Z,0
2016-11-29T01:48:41.607Z,0
2016-11-29T01:49:41.587Z,0
2016-11-29T01:50:41.558Z,0
2016-11-29T01:51:41.512Z,0
2016-11-29T01:52:41.512Z,0
2016-11-29T01:53:41.473Z,0
2016-11-29T01:54:41.780Z,0
2016-11-29T01:55:41.480Z,0
2016-11-29T01:56:41.382Z,0
2016-11-29T01:57:41.413Z,0
2016-11-29T01:58:41.389Z,0
2016-11-29T01:59:41.330Z,0
2016-11-29T02:00:41.306Z,0
2016-11-29T02:01:41.292Z,0
2016-11-29T02:02:41.247Z,0
2016-11-29T02:03:41.211Z,0
2016-11-29T02:04:41.183Z,0
2016-11-29T02:05:41.156Z,0
2016-11-29T02:06:41.142Z,0
2016-11-29T02:07:41.093Z,0
2016-11-29T02:08:41.089Z,0
2016-11-29T02:09:41.056Z,0
2016-11-29T02:10:41.046Z,0
2016-11-29T02:11:41.063Z,0
2016-11-29T02:12:40.972Z,0
2016-11-29T02:13:40.967Z,0
2016-11-29T02:14:40.945Z,0
2016-11-29T02:15:40.939Z,0
2016-11-29T02:16:40.909Z,0
2016-11-29T02:17:40.875Z,0
2016-11-29T02:18:40.854Z,0
2016-11-29T02:19:40.823Z,0
2016-11-29T02:20:40.815Z,0
2016-11-29T02:21:40.792Z,0
2016-11-29T02:22:40.774Z,0
2016-11-29T02:23:40.730Z,0
2016-11-29T02:24:40.679Z,0
2016-11-29T02:25:40.658Z,0
2016-11-29T02:26:40.613Z,0
2016-11-29T02:27:40.595Z,0
2016-11-29T02:28:40.584Z,0
2016-11-29T02:29:40.581Z,0
2016-11-29T02:30:40.537Z,0
2016-11-29T02:31:40.613Z,0
2016-11-29T02:32:40.459Z,0
2016-11-29T02:33:40.474Z,0
2016-11-29T02:34:40.469Z,0
2016-11-29T02:35:40.445Z,0
2016-11-29T02:36:40.412Z,0
2016-11-29T02:37:40.358Z,0
2016-11-29T02:38:40.330Z,0
2016-11-29T02:39:40.339Z,0
2016-11-29T02:40:40.284Z,0
2016-11-29T02:41:40.554Z,0
2016-11-29T02:42:40.207Z,0
2016-11-29T02:43:40.214Z,0
2016-11-29T02:44:40.188Z,0
2016-11-29T02:45:40.163Z,0
2016-11-29T02:46:40.126Z,0
2016-11-29T02:47:40.099Z,0
2016-11-29T02:48:40.092Z,0
2016-11-29T02:49:40.070Z,0
2016-11-29T02:50:40.032Z,0
2016-11-29T02:51:40.000Z,0
2016-11-29T02:52:40.006Z,0
2016-11-29T02:53:39.984Z,0
2016-11-29T02:54:39.951Z,0
2016-11-29T02:55:39.913Z,0
2016-11-29T02:56:39.878Z,0
2016-11-29T02:57:39.848Z,0
2016-11-29T02:58:39.861Z,0
2016-11-29T02:59:39.814Z,0
2016-11-29T03:00:40.110Z,0
2016-11-29T03:01:39.748Z,0
2016-11-29T03:02:39.735Z,0
2016-11-29T03:03:39.714Z,0
2016-11-29T03:04:39.728Z,0
2016-11-29T03:05:39.666Z,0
2016-11-29T03:06:39.627Z,0
2016-11-29T03:07:39.621Z,0
2016-11-29T03:08:39.624Z,0
2016-11-29T03:09:39.574Z,0
2016-11-29T03:10:39.575Z,0
2016-11-29T03:11:39.535Z,0
2016-11-29T03:12:39.470Z,0
2016-11-29T03:13:39.455Z,0
2016-11-29T03:14:39.459Z,0
2016-11-29T03:15:39.447Z,0
2016-11-29T03:16:39.406Z,0
2016-11-29T03:17:39.377Z,0
2016-11-29T03:18:39.330Z,0
2016-11-29T03:19:39.320Z,0
2016-11-29T03:20:39.316Z,0
2016-11-29T03:21:39.283Z,0
2016-11-29T03:22:39.215Z,0
2016-11-29T03:23:39.215Z,0
2016-11-29T03:24:39.216Z,0
2016-11-29T03:25:39.184Z,0
2016-11-29T03:26:39.192Z,0
2016-11-29T03:27:39.145Z,0
2016-11-29T03:28:39.088Z,0
2016-11-29T03:29:39.054Z,0
2016-11-29T03:30:39.065Z,0
2016-11-29T03:31:39.018Z,0
2016-11-29T03:32:39.005Z,0
2016-11-29T03:33:38.971Z,0
2016-11-29T03:34:38.957Z,0
2016-11-29T03:35:38.924Z,0
2016-11-29T03:36:38.919Z,0
2016-11-29T03:37:38.880Z,0
2016-11-29T03:38:38.853Z,0
2016-11-29T03:39:38.803Z,0
2016-11-29T03:40:39.112Z,0
2016-11-29T03:41:38.781Z,0
2016-11-29T03:42:38.777Z,0
2016-11-29T03:43:38.751Z,0
2016-11-29T03:44:38.713Z,0
2016-11-29T03:45:38.679Z,0
2016-11-29T03:46:38.659Z,0
2016-11-29T03:47:38.672Z,0
2016-11-29T03:48:38.614Z,0
2016-11-29T03:49:38.591Z,0
2016-11-29T03:50:38.547Z,0
2016-11-29T03:51:38.543Z,0
2016-11-29T03:52:38.827Z,0
2016-11-29T03:53:38.495Z,0
2016-11-29T03:54:38.470Z,0
2016-11-29T03:55:38.439Z,0
2016-11-29T03:56:38.419Z,0
2016-11-29T03:57:38.392Z,0
2016-11-29T03:58:38.362Z,0
2016-11-29T03:59:38.334Z,0
2016-11-29T04:00:38.321Z,0
2016-11-29T04:01:38.286Z,0
2016-11-29T04:02:38.267Z,0
2016-11-29T04:03:38.227Z,0
2016-11-29T04:04:38.229Z,0
2016-11-29T04:05:38.204Z,0
2016-11-29T04:06:38.159Z,0
2016-11-29T04:07:38.169Z,0
2016-11-29T04:08:38.141Z,0
2016-11-29T04:09:38.107Z,0
2016-11-29T04:10:38.084Z,0
2016-11-29T04:11:38.033Z,0
2016-11-29T04:12:38.032Z,0
2016-11-29T04:13:37.999Z,0
2016-11-29T04:14:37.984Z,0
2016-11-29T04:15:37.951Z,0
2016-11-29T04:16:37.917Z,0
2016-11-29T04:17:37.924Z,0
2016-11-29T04:18:37.893Z,0
2016-11-29T04:19:37.871Z,0
2016-11-29T04:20:37.829Z,0
2016-11-29T04:21:37.782Z,0
2016-11-29T04:22:37.755Z,0
2016-11-29T04:23:37.729Z,0
2016-11-29T04:24:37.729Z,0
2016-11-29T04:25:37.687Z,0
2016-11-29T04:26:37.654Z,0
2016-11-29T04:27:37.640Z,0
2016-11-29T04:28:37.611Z,0
2016-11-29T04:29:37.589Z,0
2016-11-29T04:30:37.562Z,0
2016-11-29T04:31:37.538Z,0
2016-11-29T04:32:37.509Z,0
2016-11-29T04:33:37.480Z,0
2016-11-29T04:34:37.463Z,0
2016-11-29T04:35:37.438Z,0
2016-11-29T04:36:37.416Z,0
2016-11-29T04:37:37.390Z,0
2016-11-29T04:38:37.363Z,0
2016-11-29T04:39:37.340Z,0
2016-11-29T04:40:37.320Z,0
2016-11-29T04:41:37.329Z,0
2016-11-29T04:42:37.266Z,0
2016-11-29T04:43:37.252Z,0
2016-11-29T04:44:37.222Z,0
2016-11-29T04:45:37.196Z,0
2016-11-29T04:46:37.197Z,0
2016-11-29T04:47:37.451Z,0
2016-11-29T04:48:37.124Z,0
2016-11-29T04:49:37.105Z,0
2016-11-29T04:50:37.079Z,0
2016-11-29T04:51:37.050Z,0
2016-11-29T04:52:37.028Z,0
2016-11-29T04:53:37.017Z,0
2016-11-29T04:54:36.979Z,0
2016-11-29T04:55:36.960Z,0
2016-11-29T04:56:36.937Z,0
2016-11-29T04:57:36.913Z,0
2016-11-29T04:58:36.886Z,0
2016-11-29T04:59:36.861Z,0
2016-11-29T05:00:36.835Z,0
2016-11-29T05:01:36.811Z,0
2016-11-29T05:02:36.792Z,0
2016-11-29T05:03:36.765Z,0
2016-11-29T05:04:36.744Z,0
2016-11-29T05:05:36.722Z,0
2016-11-29T05:06:36.703Z,0
2016-11-29T05:07:36.670Z,0
2016-11-29T05:08:36.661Z,0
2016-11-29T05:09:36.629Z,0
2016-11-29T05:10:36.600Z,0
2016-11-29T05:11:36.600Z,0
2016-11-29T05:12:36.554Z,0
2016-11-29T05:13:36.538Z,0
2016-11-29T05:14:36.509Z,0
2016-11-29T05:15:36.485Z,0
2016-11-29T05:16:36.456Z,0
2016-11-29T05:17:36.438Z,0
2016-11-29T05:18:36.420Z,0
2016-11-29T05:19:36.395Z,0
2016-11-29T05:20:36.365Z,0
2016-11-29T05:21:36.347Z,0
2016-11-29T05:22:36.320Z,0
2016-11-29T05:23:36.297Z,0
2016-11-29T05:24:36.276Z,0
2016-11-29T05:25:36.259Z,0
2016-11-29T05:26:36.226Z,0
2016-11-29T05:27:36.234Z,0
2016-11-29T05:28:36.180Z,0
2016-11-29T05:29:36.198Z,0
2016-11-29T05:30:36.135Z,0
2016-11-29T05:31:36.113Z,0
2016-11-29T05:32:36.087Z,0
2016-11-29T05:33:36.065Z,0
2016-11-29T05:34:36.043Z,0
2016-11-29T05:35:36.022Z,0
2016-11-29T05:36:35.998Z,0
2016-11-29T05:37:35.970Z,0
2016-11-29T05:38:35.953Z,0
2016-11-29T05:39:35.925Z,0
2016-11-29T05:40:35.932Z,0
2016-11-29T05:41:35.899Z,0
2016-11-29T05:42:35.885Z,0
2016-11-29T05:43:35.864Z,0
2016-11-29T05:44:35.860Z,0
2016-11-29T05:45:35.821Z,0
2016-11-29T05:46:35.793Z,0
2016-11-29T05:47:35.797Z,0
2016-11-29T05:48:35.731Z,0
2016-11-29T05:49:35.713Z,0
2016-11-29T05:50:50.602Z,0
2016-11-29T05:51:35.876Z,0
2016-11-29T05:52:35.679Z,0
2016-11-29T05:53:35.644Z,0
2016-11-29T05:54:35.644Z,0
2016-11-29T05:55:35.606Z,0
2016-11-29T05:56:35.559Z,0
2016-11-29T05:57:35.549Z,0
2016-11-29T05:58:35.531Z,0
2016-11-29T05:59:35.494Z,0
2016-11-29T06:00:35.464Z,0
2016-11-29T06:01:35.486Z,0
2016-11-29T06:02:35.435Z,0
2016-11-29T06:03:35.402Z,0
2016-11-29T06:04:35.386Z,0
2016-11-29T06:05:35.346Z,0
2016-11-29T06:06:35.315Z,0
2016-11-29T06:07:35.309Z,0
2016-11-29T06:08:35.324Z,0
2016-11-29T06:09:35.268Z,0
2016-11-29T06:10:35.262Z,0
2016-11-29T06:11:35.232Z,0
2016-11-29T06:12:35.223Z,0
2016-11-29T06:13:35.167Z,0
2016-11-29T06:14:35.158Z,0
2016-11-29T06:15:35.131Z,0
2016-11-29T06:16:35.335Z,0
2016-11-29T06:17:35.293Z,0
2016-11-29T06:18:35.052Z,0
2016-11-29T06:19:35.061Z,0
2016-11-29T06:20:35.021Z,0
2016-11-29T06:21:35.028Z,0
2016-11-29T06:22:34.961Z,0
2016-11-29T06:23:34.943Z,5
2016-11-29T06:24:34.927Z,5
2016-11-29T06:25:34.890Z,5
2016-11-29T06:26:34.873Z,5
2016-11-29T06:27:34.871Z,5
2016-11-29T06:28:34.830Z,10
2016-11-29T06:29:34.831Z,10
2016-11-29T06:30:34.791Z,10
2016-11-29T06:31:34.803Z,15
2016-11-29T06:32:34.754Z,15
2016-11-29T06:33:34.744Z,15
2016-11-29T06:34:34.715Z,20
2016-11-29T06:35:34.714Z,20
2016-11-29T06:36:34.708Z,25
2016-11-29T06:37:34.625Z,25
2016-11-29T06:38:34.611Z,25
2016-11-29T06:39:34.576Z,30
2016-11-29T06:40:34.561Z,35
2016-11-29T06:41:34.532Z,40
2016-11-29T06:42:34.508Z,40
2016-11-29T06:43:34.707Z,55
2016-11-29T06:44:34.491Z,70
2016-11-29T06:45:34.669Z,80
2016-11-29T06:46:34.437Z,85
2016-11-29T06:47:34.398Z,90
2016-11-29T06:48:34.371Z,100
2016-11-29T06:49:34.371Z,105
2016-11-29T06:50:34.345Z,110
2016-11-29T06:51:34.306Z,115
2016-11-29T06:52:34.317Z,125
2016-11-29T06:53:34.256Z,130
2016-11-29T06:54:34.265Z,135
2016-11-29T06:55:34.226Z,140
2016-11-29T06:56:34.212Z,140
2016-11-29T06:57:34.190Z,155
2016-11-29T06:58:34.165Z,165
2016-11-29T06:59:34.145Z,175
2016-11-29T07:00:34.112Z,185
2016-11-29T07:01:34.109Z,190
2016-11-29T07:02:34.069Z,200
2016-11-29T07:03:34.073Z,195
2016-11-29T07:04:34.047Z,195
2016-11-29T07:05:34.010Z,210
2016-11-29T07:06:33.983Z,210
2016-11-29T07:07:33.967Z,220
2016-11-29T07:08:34.260Z,235
2016-11-29T07:09:33.930Z,245
2016-11-29T07:10:33.893Z,250
2016-11-29T07:11:33.888Z,265
2016-11-29T07:12:34.041Z,270
2016-11-29T07:13:33.844Z,280
2016-11-29T07:14:33.839Z,290
2016-11-29T07:15:33.779Z,305
2016-11-29T07:16:33.776Z,315
2016-11-29T07:17:33.773Z,325
2016-11-29T07:18:33.733Z,330
2016-11-29T07:19:33.709Z,340
2016-11-29T07:20:33.673Z,340
2016-11-29T07:21:33.647Z,350
2016-11-29T07:22:33.629Z,365
2016-11-29T07:23:33.606Z,375
2016-11-29T07:24:33.580Z,385
2016-11-29T07:25:33.592Z,390
2016-11-29T07:26:33.559Z,400
2016-11-29T07:27:33.535Z,415
2016-11-29T07:28:33.525Z,425
2016-11-29T07:29:33.490Z,435
2016-11-29T07:30:33.498Z,440
2016-11-29T07:31:33.467Z,445
2016-11-29T07:32:33.435Z,455
2016-11-29T07:33:33.439Z,480
2016-11-29T07:34:33.455Z,485
2016-11-29T07:35:33.378Z,485
2016-11-29T07:36:33.361Z,505
2016-11-29T07:37:33.385Z,510
2016-11-29T07:38:33.308Z,520
2016-11-29T07:39:33.530Z,530
2016-11-29T07:40:33.475Z,535
2016-11-29T07:41:33.254Z,565
2016-11-29T07:42:33.248Z,605
2016-11-29T07:43:33.217Z,610
2016-11-29T07:44:33.209Z,615
2016-11-29T07:45:33.165Z,605
2016-11-29T07:46:33.176Z,580
2016-11-29T07:47:33.151Z,570
2016-11-29T07:48:33.132Z,565
2016-11-29T07:49:33.074Z,570
2016-11-29T07:50:33.047Z,570
2016-11-29T07:51:33.072Z,605
2016-11-29T07:52:33.059Z,660
2016-11-29T07:53:33.021Z,635
2016-11-29T07:54:33.003Z,620
2016-11-29T07:55:32.963Z,655
2016-11-29T07:56:32.963Z,690
2016-11-29T07:57:33.252Z,740
2016-11-29T07:58:32.933Z,770
2016-11-29T07:59:32.884Z,765
2016-11-29T08:00:32.854Z,745
2016-11-29T08:01:33.187Z,750
2016-11-29T08:02:32.862Z,765
2016-11-29T08:03:32.858Z,795
2016-11-29T08:04:32.800Z,840
2016-11-29T08:05:32.812Z,845
2016-11-29T08:06:32.794Z,850
2016-11-29T08:07:32.943Z,870
2016-11-29T08:08:32.953Z,920
2016-11-29T08:09:32.688Z,910
2016-11-29T08:10:32.680Z,890
2016-11-29T08:11:32.634Z,905
2016-11-29T08:12:32.669Z,915
2016-11-29T08:13:32.640Z,905
2016-11-29T08:14:32.613Z,935
2016-11-29T08:15:32.575Z,950
2016-11-29T08:16:32.615Z,985
2016-11-29T08:17:32.559Z,1040
2016-11-29T08:18:32.543Z,1035
2016-11-29T08:19:32.497Z,1020
2016-11-29T08:20:32.524Z,1010
2016-11-29T08:21:32.484Z,945
2016-11-29T08:22:32.454Z,935
2016-11-29T08:23:32.431Z,955
2016-11-29T08:24:32.423Z,1040
2016-11-29T08:25:32.427Z,1185
2016-11-29T08:26:32.358Z,1230
2016-11-29T08:27:32.671Z,1205
2016-11-29T08:28:32.351Z,1125
2016-11-29T08:29:32.353Z,1075
2016-11-29T08:30:32.315Z,1080
2016-11-29T08:31:32.297Z,1215
2016-11-29T08:32:32.307Z,1285
2016-11-29T08:33:32.278Z,1265
2016-11-29T08:35:32.247Z,1165
2016-11-29T08:36:32.207Z,1240
2016-11-29T08:37:32.477Z,1160
2016-11-29T08:38:32.171Z,1040
2016-11-29T08:39:32.160Z,1015
2016-11-29T08:40:32.114Z,1055
2016-11-29T08:41:32.111Z,1205
2016-11-29T08:42:32.143Z,1275
2016-11-29T08:43:32.070Z,1275
2016-11-29T08:44:32.070Z,1385
2016-11-29T08:45:32.066Z,1455
2016-11-29T08:46:32.047Z,1410
2016-11-29T08:47:32.038Z,1360
2016-11-29T08:48:32.310Z,1390
2016-11-29T08:49:32.016Z,1425
2016-11-29T08:50:31.988Z,1465
2016-11-29T08:51:31.985Z,1540
2016-11-29T08:52:31.909Z,1470
2016-11-29T08:53:31.952Z,1385
2016-11-29T08:54:31.900Z,1240
2016-11-29T08:55:31.886Z,1150
2016-11-29T08:56:31.892Z,1175
2016-11-29T08:57:31.840Z,1215
2016-11-29T08:58:31.789Z,1255
2016-11-29T08:59:31.860Z,1205
2016-11-29T09:00:31.799Z,1105
2016-11-29T09:01:31.810Z,1075
2016-11-29T09:02:31.756Z,1050
2016-11-29T09:03:31.769Z,1005
2016-11-29T09:04:31.722Z,965
2016-11-29T09:05:31.701Z,960
2016-11-29T09:06:31.689Z,920
2016-11-29T09:07:31.690Z,1035
2016-11-29T09:08:31.964Z,1285
2016-11-29T09:09:31.640Z,1285
2016-11-29T09:10:31.625Z,1210
2016-11-29T09:11:31.584Z,1445
2016-11-29T09:12:31.603Z,1575
2016-11-29T09:13:31.584Z,1615
2016-11-29T09:14:31.544Z,1695
2016-11-29T09:15:31.616Z,1580
2016-11-29T09:16:31.525Z,1715
2016-11-29T09:17:31.505Z,1780
2016-11-29T09:18:31.443Z,1630
2016-11-29T09:19:31.497Z,1685
2016-11-29T09:20:31.436Z,1845
2016-11-29T09:21:31.430Z,1725
2016-11-29T09:22:31.422Z,1745
2016-11-29T09:23:31.382Z,1875
2016-11-29T09:24:31.413Z,1900
2016-11-29T09:25:31.380Z,1820
2016-11-29T09:26:31.351Z,1735
2016-11-29T09:27:31.327Z,1710
2016-11-29T09:28:31.322Z,1645
2016-11-29T09:29:31.590Z,1730
2016-11-29T09:30:31.300Z,1870
2016-11-29T09:31:31.281Z,1815
2016-11-29T09:32:31.247Z,1730
2016-11-29T09:33:31.259Z,1740
2016-11-29T09:34:31.225Z,1720
2016-11-29T09:35:31.232Z,1740
2016-11-29T09:36:31.195Z,1645
2016-11-29T09:37:31.173Z,1520
2016-11-29T09:38:31.139Z,1595
2016-11-29T09:39:31.117Z,1775
2016-11-29T09:40:31.160Z,1795
2016-11-29T09:41:31.108Z,1840
2016-11-29T09:42:31.118Z,1795
2016-11-29T09:43:31.060Z,1730
2016-11-29T09:44:31.051Z,1610
2016-11-29T09:45:31.044Z,1485
2016-11-29T09:46:31.017Z,1470
2016-11-29T09:47:31.012Z,1440
2016-11-29T09:48:30.990Z,1510
2016-11-29T09:49:30.973Z,1665
2016-11-29T09:50:30.971Z,1830
2016-11-29T09:51:30.946Z,1955
2016-11-29T09:52:30.960Z,1940
2016-11-29T09:53:30.912Z,1955
2016-11-29T09:54:30.912Z,1880
2016-11-29T09:55:31.199Z,1805
2016-11-29T09:56:30.875Z,1950
2016-11-29T09:57:30.862Z,2005
2016-11-29T09:58:30.846Z,1775
2016-11-29T09:59:30.793Z,1750
2016-11-29T10:00:30.785Z,2015
2016-11-29T10:01:30.771Z,2115
2016-11-29T10:02:30.803Z,2035
2016-11-29T10:03:30.769Z,1905
2016-11-29T10:04:30.751Z,1805
2016-11-29T10:05:30.720Z,1755
2016-11-29T10:06:30.718Z,1765
2016-11-29T10:07:30.682Z,1670
2016-11-29T10:08:30.685Z,1600
2016-11-29T10:09:30.691Z,1740
2016-11-29T10:10:30.665Z,1875
2016-11-29T10:11:30.660Z,1805
2016-11-29T10:12:30.630Z,1970
2016-11-29T10:13:30.595Z,2080
2016-11-29T10:14:30.593Z,1960
2016-11-29T10:15:30.568Z,1905
2016-11-29T10:16:30.558Z,1990
2016-11-29T10:17:30.541Z,1980
2016-11-29T10:18:30.536Z,2040
2016-11-29T10:19:30.497Z,2200
2016-11-29T10:20:30.492Z,2290
2016-11-29T10:21:30.486Z,2045
2016-11-29T10:22:30.457Z,1665
2016-11-29T10:23:30.463Z,1510
2016-11-29T10:24:30.457Z,1455
2016-11-29T10:25:30.404Z,1555
2016-11-29T10:26:30.399Z,1540
2016-11-29T10:27:30.391Z,1600
2016-11-29T10:28:30.377Z,1660
2016-11-29T10:29:30.336Z,1630
2016-11-29T10:30:30.349Z,1765
2016-11-29T10:31:30.524Z,1855
2016-11-29T10:32:30.278Z,2025
2016-11-29T10:33:30.280Z,2085
2016-11-29T10:34:30.275Z,1925
2016-11-29T10:35:30.238Z,1675
2016-11-29T10:36:30.257Z,1515
2016-11-29T10:37:30.232Z,1635
2016-11-29T10:38:30.221Z,1915
2016-11-29T10:39:30.195Z,1930
2016-11-29T10:40:30.204Z,1765
2016-11-29T10:41:30.176Z,1795
2016-11-29T10:42:30.160Z,1935
2016-11-29T10:43:30.104Z,2020
2016-11-29T10:44:30.108Z,1975
2016-11-29T10:45:30.113Z,1925
2016-11-29T10:46:30.086Z,1895
2016-11-29T10:47:30.066Z,1735
2016-11-29T10:48:30.050Z,1880
2016-11-29T10:49:30.004Z,2150
2016-11-29T10:50:29.990Z,2085
2016-11-29T10:51:29.996Z,1830
2016-11-29T10:52:29.995Z,1760
2016-11-29T10:53:29.984Z,1730
2016-11-29T10:54:29.939Z,1750
2016-11-29T10:55:29.927Z,2055
2016-11-29T10:56:29.916Z,2110
2016-11-29T10:57:29.951Z,2100
2016-11-29T10:58:29.848Z,2060
2016-11-29T10:59:29.836Z,1875
2016-11-29T11:00:29.832Z,1880
2016-11-29T11:01:29.844Z,2050
2016-11-29T11:02:29.809Z,2115
2016-11-29T11:03:29.794Z,2190
2016-11-29T11:04:29.797Z,2135
2016-11-29T11:05:29.765Z,1870
2016-11-29T11:06:29.769Z,1720
2016-11-29T11:07:29.739Z,1625
2016-11-29T11:08:29.723Z,1765
2016-11-29T11:09:29.995Z,1905
2016-11-29T11:10:29.695Z,1950
2016-11-29T11:11:29.654Z,1915
2016-11-29T11:12:29.676Z,1810
2016-11-29T11:13:29.618Z,1725
2016-11-29T11:14:29.648Z,1875
2016-11-29T11:15:29.606Z,2030
2016-11-29T11:16:29.579Z,1940
2016-11-29T11:17:29.570Z,1885
2016-11-29T11:18:29.875Z,1870
2016-11-29T11:19:29.537Z,1960
2016-11-29T11:20:29.532Z,2140
2016-11-29T11:21:29.516Z,2090
2016-11-29T11:22:29.520Z,1935
2016-11-29T11:23:29.466Z,1985
2016-11-29T11:24:29.761Z,1965
2016-11-29T11:25:29.443Z,1815
2016-11-29T11:26:29.460Z,1745
2016-11-29T11:27:29.410Z,1755
2016-11-29T11:28:29.367Z,1935
2016-11-29T11:29:29.391Z,2075
2016-11-29T11:30:29.373Z,1945
2016-11-29T11:31:29.360Z,1850
2016-11-29T11:32:29.320Z,1815
2016-11-29T11:33:29.320Z,1910
2016-11-29T11:34:29.291Z,2065
2016-11-29T11:35:29.276Z,1970
2016-11-29T11:36:29.259Z,1805
2016-11-29T11:37:35.490Z,1900
2016-11-29T11:38:29.250Z,1995
2016-11-29T11:39:29.229Z,1940
2016-11-29T11:40:29.203Z,1865
2016-11-29T11:41:29.201Z,1885
2016-11-29T11:42:29.162Z,1815
2016-11-29T11:43:29.183Z,1795
2016-11-29T11:44:29.156Z,1885
2016-11-29T11:45:29.093Z,1805
2016-11-29T11:46:29.121Z,1740
2016-11-29T11:47:29.065Z,1750
2016-11-29T11:48:29.079Z,1650
2016-11-29T11:49:29.073Z,1615
2016-11-29T11:50:29.045Z,1700
2016-11-29T11:51:29.040Z,1800
2016-11-29T11:52:29.014Z,1775
2016-11-29T11:53:29.002Z,1725
2016-11-29T11:54:29.291Z,1795
2016-11-29T11:55:28.959Z,1670
2016-11-29T11:56:29.259Z,1595
2016-11-29T11:57:28.931Z,1670
2016-11-29T11:58:29.114Z,1830
2016-11-29T11:59:28.907Z,1975
2016-11-29T12:00:28.864Z,1845
2016-11-29T12:01:28.838Z,1590
2016-11-29T12:02:28.840Z,1575
2016-11-29T12:03:28.806Z,1695
2016-11-29T12:04:28.791Z,1835
2016-11-29T12:05:28.804Z,1965
2016-11-29T12:06:28.790Z,1750
2016-11-29T12:07:28.759Z,1535
2016-11-29T12:08:28.722Z,1495
2016-11-29T12:09:28.746Z,1525
2016-11-29T12:10:28.729Z,1615
2016-11-29T12:11:28.677Z,1580
2016-11-29T12:12:28.701Z,1475
2016-11-29T12:13:28.661Z,1530
2016-11-29T12:14:28.670Z,1595
2016-11-29T12:15:29.245Z,1630
2016-11-29T12:16:28.612Z,1570
2016-11-29T12:17:28.593Z,1470
2016-11-29T12:18:28.577Z,1445
2016-11-29T12:19:28.564Z,1550
2016-11-29T12:20:28.561Z,1625
2016-11-29T12:21:28.517Z,1490
2016-11-29T12:22:28.503Z,1515
2016-11-29T12:23:28.500Z,1655
2016-11-29T12:24:28.451Z,1630
2016-11-29T12:25:28.472Z,1625
2016-11-29T12:26:28.414Z,1760
2016-11-29T12:27:28.437Z,1895
2016-11-29T12:28:28.387Z,1780
2016-11-29T12:29:28.379Z,1735
2016-11-29T12:30:28.694Z,1840
2016-11-29T12:31:28.341Z,1745
2016-11-29T12:32:28.346Z,1735
2016-11-29T12:33:28.334Z,1875
2016-11-29T12:34:28.299Z,1885
2016-11-29T12:35:28.295Z,1745
2016-11-29T12:36:28.261Z,1715
2016-11-29T12:37:28.272Z,1660
2016-11-29T12:38:28.574Z,1610
2016-11-29T12:39:28.205Z,1620
2016-11-29T12:40:28.205Z,1655
2016-11-29T12:41:28.194Z,1505
2016-11-29T12:42:28.168Z,1500
2016-11-29T12:43:28.140Z,1590
2016-11-29T12:44:28.132Z,1630
2016-11-29T12:45:28.123Z,1640
2016-11-29T12:46:28.082Z,1450
2016-11-29T12:47:28.076Z,1335
2016-11-29T12:48:28.060Z,1375
2016-11-29T12:49:28.068Z,1395
2016-11-29T12:50:28.025Z,1470
2016-11-29T12:51:28.011Z,1570
2016-11-29T12:52:27.978Z,1590
2016-11-29T12:53:27.986Z,1445
2016-11-29T12:54:27.957Z,1415
2016-11-29T12:55:27.957Z,1625
2016-11-29T12:56:27.933Z,1620
2016-11-29T12:57:27.906Z,1480
2016-11-29T12:58:27.884Z,1455
2016-11-29T12:59:27.890Z,1490
2016-11-29T13:00:27.879Z,1440
2016-11-29T13:01:27.826Z,1335
2016-11-29T13:02:27.819Z,1255
2016-11-29T13:03:27.793Z,1285
2016-11-29T13:04:27.796Z,1355
2016-11-29T13:05:27.806Z,1330
2016-11-29T13:06:27.768Z,1375
2016-11-29T13:07:27.743Z,1390
2016-11-29T13:08:27.727Z,1375
2016-11-29T13:09:27.718Z,1400
2016-11-29T13:10:27.690Z,1415
2016-11-29T13:11:27.673Z,1470
2016-11-29T13:12:27.643Z,1440
2016-11-29T13:13:27.639Z,1330
2016-11-29T13:14:27.627Z,1290
2016-11-29T13:15:27.593Z,1290
2016-11-29T13:16:27.586Z,1210
2016-11-29T13:17:27.582Z,1220
2016-11-29T13:18:27.528Z,1265
2016-11-29T13:19:27.529Z,1220
2016-11-29T13:20:27.520Z,1150
2016-11-29T13:21:27.507Z,1140
2016-11-29T13:22:27.516Z,1245
2016-11-29T13:23:27.456Z,1245
2016-11-29T13:24:27.467Z,1175
2016-11-29T13:25:27.437Z,1215
2016-11-29T13:26:27.733Z,1230
2016-11-29T13:27:27.420Z,1220
2016-11-29T13:28:27.444Z,1300
2016-11-29T13:29:27.359Z,1325
2016-11-29T13:30:27.367Z,1335
2016-11-29T13:31:27.349Z,1360
2016-11-29T13:32:27.331Z,1325
2016-11-29T13:33:27.335Z,1280
2016-11-29T13:34:27.305Z,1250
2016-11-29T13:35:27.277Z,1170
2016-11-29T13:36:27.264Z,1165
2016-11-29T13:37:27.270Z,1065
2016-11-29T13:38:27.252Z,955
2016-11-29T13:39:27.237Z,865
2016-11-29T13:40:27.213Z,865
2016-11-29T13:41:27.177Z,925
2016-11-29T13:42:27.497Z,965
2016-11-29T13:43:27.176Z,1020
2016-11-29T13:44:27.112Z,1025
2016-11-29T13:45:27.127Z,1065
2016-11-29T13:46:27.113Z,1155
2016-11-29T13:47:27.097Z,1070
2016-11-29T13:48:27.077Z,955
2016-11-29T13:49:27.041Z,1025
2016-11-29T13:50:27.031Z,1095
2016-11-29T13:51:26.997Z,1175
2016-11-29T13:52:27.024Z,1145
2016-11-29T13:53:26.987Z,1035
2016-11-29T13:54:26.967Z,1065
2016-11-29T13:55:26.957Z,1050
2016-11-29T13:56:26.939Z,980
2016-11-29T13:57:26.937Z,1015
2016-11-29T13:58:26.905Z,1060
2016-11-29T13:59:26.898Z,945
2016-11-29T14:00:26.873Z,600
2016-11-29T14:01:26.860Z,345
2016-11-29T14:02:26.855Z,300
2016-11-29T14:03:26.862Z,295